sensor_id;sensor_type;location;lat;lon;timestamp;P1;durP1;ratioP1;P2;durP2;ratioP2
32876;SDS011;19226;51.600;8.034;2023-03-15T00:01:10;18.02;;;2.70;;
32876;SDS011;19226;51.600;8.034;2023-03-15T00:04:01;13.68;;;2.22;;
32876;SDS011;19226;51.600;8.034;2023-03-15T00:06:48;12.18;;;2.95;;
32876;SDS011;19226;51.600;8.034;2023-03-15T00:09:33;17.42;;;2.67;;
32876;SDS011;19226;51.600;8.034;2023-03-15T00:12:17;9.07;;;2.13;;
32876;SDS011;19226;51.600;8.034;2023-03-15T00:15:02;10.95;;;2.50;;
32876;SDS011;19226;51.600;8.034;2023-03-15T00:17:47;6.35;;;1.90;;
32876;SDS011;19226;51.600;8.034;2023-03-15T00:20:31;13.50;;;2.75;;
32876;SDS011;19226;51.600;8.034;2023-03-15T00:23:19;13.85;;;3.38;;
32876;SDS011;19226;51.600;8.034;2023-03-15T00:26:04;17.85;;;2.80;;
32876;SDS011;19226;51.600;8.034;2023-03-15T00:28:49;5.82;;;2.10;;
32876;SDS011;19226;51.600;8.034;2023-03-15T00:31:34;9.10;;;2.25;;
32876;SDS011;19226;51.600;8.034;2023-03-15T00:34:18;8.63;;;2.08;;
32876;SDS011;19226;51.600;8.034;2023-03-15T00:37:07;12.48;;;2.35;;
32876;SDS011;19226;51.600;8.034;2023-03-15T00:39:52;13.27;;;2.28;;
32876;SDS011;19226;51.600;8.034;2023-03-15T00:42:39;15.27;;;2.58;;
32876;SDS011;19226;51.600;8.034;2023-03-15T00:45:23;19.63;;;2.75;;
32876;SDS011;19226;51.600;8.034;2023-03-15T00:48:08;18.08;;;2.00;;
32876;SDS011;19226;51.600;8.034;2023-03-15T00:51:12;16.17;;;2.88;;
32876;SDS011;19226;51.600;8.034;2023-03-15T00:53:59;11.43;;;3.08;;
32876;SDS011;19226;51.600;8.034;2023-03-15T00:56:43;13.90;;;2.30;;
32876;SDS011;19226;51.600;8.034;2023-03-15T00:59:29;13.77;;;2.50;;
32876;SDS011;19226;51.600;8.034;2023-03-15T01:05:05;9.50;;;2.40;;
32876;SDS011;19226;51.600;8.034;2023-03-15T01:07:51;5.93;;;1.92;;
32876;SDS011;19226;51.600;8.034;2023-03-15T01:10:36;10.63;;;2.78;;
32876;SDS011;19226;51.600;8.034;2023-03-15T01:13:20;15.45;;;3.03;;
32876;SDS011;19226;51.600;8.034;2023-03-15T01:16:05;8.77;;;2.50;;
32876;SDS011;19226;51.600;8.034;2023-03-15T01:18:50;7.45;;;2.40;;
32876;SDS011;19226;51.600;8.034;2023-03-15T01:21:36;13.35;;;3.15;;
32876;SDS011;19226;51.600;8.034;2023-03-15T01:24:20;9.25;;;2.80;;
32876;SDS011;19226;51.600;8.034;2023-03-15T01:27:07;14.93;;;3.20;;
32876;SDS011;19226;51.600;8.034;2023-03-15T01:29:52;12.18;;;3.15;;
32876;SDS011;19226;51.600;8.034;2023-03-15T01:32:36;15.45;;;3.53;;
32876;SDS011;19226;51.600;8.034;2023-03-15T01:35:21;12.45;;;3.38;;
32876;SDS011;19226;51.600;8.034;2023-03-15T01:38:05;12.70;;;3.15;;
32876;SDS011;19226;51.600;8.034;2023-03-15T01:40:50;10.25;;;3.45;;
32876;SDS011;19226;51.600;8.034;2023-03-15T01:43:34;16.50;;;2.90;;
32876;SDS011;19226;51.600;8.034;2023-03-15T01:52:19;14.63;;;2.55;;
32876;SDS011;19226;51.600;8.034;2023-03-15T01:55:17;7.95;;;3.03;;
32876;SDS011;19226;51.600;8.034;2023-03-15T01:58:18;13.25;;;2.92;;
32876;SDS011;19226;51.600;8.034;2023-03-15T02:01:04;10.18;;;3.67;;
32876;SDS011;19226;51.600;8.034;2023-03-15T02:03:55;8.35;;;2.53;;
32876;SDS011;19226;51.600;8.034;2023-03-15T02:06:51;19.85;;;3.40;;
32876;SDS011;19226;51.600;8.034;2023-03-15T02:09:53;18.27;;;3.92;;
32876;SDS011;19226;51.600;8.034;2023-03-15T02:12:53;13.93;;;4.05;;
32876;SDS011;19226;51.600;8.034;2023-03-15T02:15:40;12.60;;;3.97;;
32876;SDS011;19226;51.600;8.034;2023-03-15T02:18:38;10.65;;;3.88;;
32876;SDS011;19226;51.600;8.034;2023-03-15T02:21:26;16.33;;;4.70;;
32876;SDS011;19226;51.600;8.034;2023-03-15T02:27:30;22.42;;;6.28;;
32876;SDS011;19226;51.600;8.034;2023-03-15T02:30:17;16.17;;;5.60;;
32876;SDS011;19226;51.600;8.034;2023-03-15T02:33:03;18.23;;;5.75;;
32876;SDS011;19226;51.600;8.034;2023-03-15T02:35:52;25.85;;;7.25;;
32876;SDS011;19226;51.600;8.034;2023-03-15T02:38:38;20.45;;;7.03;;
32876;SDS011;19226;51.600;8.034;2023-03-15T02:44:13;16.73;;;8.15;;
32876;SDS011;19226;51.600;8.034;2023-03-15T02:47:03;23.08;;;8.13;;
32876;SDS011;19226;51.600;8.034;2023-03-15T02:49:52;15.93;;;8.30;;
32876;SDS011;19226;51.600;8.034;2023-03-15T02:52:37;15.20;;;8.63;;
32876;SDS011;19226;51.600;8.034;2023-03-15T02:55:22;20.23;;;9.32;;
32876;SDS011;19226;51.600;8.034;2023-03-15T02:58:06;15.43;;;9.20;;
32876;SDS011;19226;51.600;8.034;2023-03-15T03:00:51;24.25;;;10.52;;
32876;SDS011;19226;51.600;8.034;2023-03-15T03:03:37;21.63;;;9.30;;
32876;SDS011;19226;51.600;8.034;2023-03-15T03:06:22;20.02;;;9.85;;
32876;SDS011;19226;51.600;8.034;2023-03-15T03:09:07;21.73;;;9.63;;
32876;SDS011;19226;51.600;8.034;2023-03-15T03:11:52;22.25;;;9.75;;
32876;SDS011;19226;51.600;8.034;2023-03-15T03:14:37;17.48;;;10.30;;
32876;SDS011;19226;51.600;8.034;2023-03-15T03:17:26;23.30;;;9.35;;
32876;SDS011;19226;51.600;8.034;2023-03-15T03:20:11;14.73;;;8.93;;
32876;SDS011;19226;51.600;8.034;2023-03-15T03:23:02;17.35;;;9.38;;
32876;SDS011;19226;51.600;8.034;2023-03-15T03:25:50;17.98;;;9.13;;
32876;SDS011;19226;51.600;8.034;2023-03-15T03:31:25;14.70;;;8.63;;
32876;SDS011;19226;51.600;8.034;2023-03-15T03:34:12;12.85;;;8.95;;
32876;SDS011;19226;51.600;8.034;2023-03-15T03:36:59;12.10;;;9.07;;
32876;SDS011;19226;51.600;8.034;2023-03-15T03:40:02;15.95;;;9.35;;
32876;SDS011;19226;51.600;8.034;2023-03-15T03:42:49;14.88;;;9.25;;
32876;SDS011;19226;51.600;8.034;2023-03-15T03:45:36;19.77;;;9.95;;
32876;SDS011;19226;51.600;8.034;2023-03-15T03:48:21;20.88;;;10.70;;
32876;SDS011;19226;51.600;8.034;2023-03-15T03:51:06;16.15;;;10.63;;
32876;SDS011;19226;51.600;8.034;2023-03-15T03:53:51;16.40;;;10.25;;
32876;SDS011;19226;51.600;8.034;2023-03-15T03:56:36;23.42;;;10.30;;
32876;SDS011;19226;51.600;8.034;2023-03-15T03:59:23;20.88;;;9.65;;
32876;SDS011;19226;51.600;8.034;2023-03-15T04:02:13;15.95;;;10.57;;
32876;SDS011;19226;51.600;8.034;2023-03-15T04:05:05;18.58;;;10.43;;
32876;SDS011;19226;51.600;8.034;2023-03-15T04:07:50;15.25;;;10.48;;
32876;SDS011;19226;51.600;8.034;2023-03-15T04:10:35;20.35;;;10.32;;
32876;SDS011;19226;51.600;8.034;2023-03-15T04:13:20;15.43;;;10.18;;
32876;SDS011;19226;51.600;8.034;2023-03-15T04:16:06;20.13;;;11.43;;
32876;SDS011;19226;51.600;8.034;2023-03-15T04:19:04;15.03;;;10.67;;
32876;SDS011;19226;51.600;8.034;2023-03-15T04:21:52;17.35;;;10.73;;
32876;SDS011;19226;51.600;8.034;2023-03-15T04:24:56;16.85;;;10.55;;
32876;SDS011;19226;51.600;8.034;2023-03-15T04:28:04;15.63;;;10.90;;
32876;SDS011;19226;51.600;8.034;2023-03-15T04:31:08;21.65;;;12.32;;
32876;SDS011;19226;51.600;8.034;2023-03-15T04:36:51;16.88;;;10.07;;
32876;SDS011;19226;51.600;8.034;2023-03-15T04:39:54;17.00;;;11.15;;
32876;SDS011;19226;51.600;8.034;2023-03-15T04:43:08;16.38;;;10.55;;
32876;SDS011;19226;51.600;8.034;2023-03-15T04:46:11;26.52;;;11.38;;
32876;SDS011;19226;51.600;8.034;2023-03-15T04:49:16;15.95;;;11.15;;
32876;SDS011;19226;51.600;8.034;2023-03-15T04:52:17;16.02;;;11.23;;
32876;SDS011;19226;51.600;8.034;2023-03-15T04:55:20;18.10;;;10.95;;
32876;SDS011;19226;51.600;8.034;2023-03-15T04:58:37;13.63;;;11.20;;
32876;SDS011;19226;51.600;8.034;2023-03-15T05:01:38;17.20;;;10.73;;
32876;SDS011;19226;51.600;8.034;2023-03-15T05:04:48;16.67;;;10.75;;
32876;SDS011;19226;51.600;8.034;2023-03-15T05:07:46;16.20;;;11.02;;
32876;SDS011;19226;51.600;8.034;2023-03-15T05:10:48;16.58;;;10.75;;
32876;SDS011;19226;51.600;8.034;2023-03-15T05:13:56;18.90;;;10.30;;
32876;SDS011;19226;51.600;8.034;2023-03-15T05:19:53;12.45;;;7.28;;
32876;SDS011;19226;51.600;8.034;2023-03-15T05:22:58;15.85;;;10.80;;
32876;SDS011;19226;51.600;8.034;2023-03-15T05:25:58;14.80;;;9.50;;
32876;SDS011;19226;51.600;8.034;2023-03-15T05:29:01;12.05;;;9.20;;
32876;SDS011;19226;51.600;8.034;2023-03-15T05:32:04;16.55;;;9.27;;
32876;SDS011;19226;51.600;8.034;2023-03-15T05:35:15;12.52;;;9.20;;
32876;SDS011;19226;51.600;8.034;2023-03-15T05:38:18;14.63;;;9.25;;
32876;SDS011;19226;51.600;8.034;2023-03-15T05:41:31;14.68;;;8.90;;
32876;SDS011;19226;51.600;8.034;2023-03-15T05:44:42;13.90;;;9.85;;
32876;SDS011;19226;51.600;8.034;2023-03-15T05:47:47;13.10;;;9.02;;
32876;SDS011;19226;51.600;8.034;2023-03-15T05:50:47;14.50;;;9.23;;
32876;SDS011;19226;51.600;8.034;2023-03-15T05:53:39;17.63;;;8.63;;
32876;SDS011;19226;51.600;8.034;2023-03-15T05:56:42;16.05;;;9.48;;
32876;SDS011;19226;51.600;8.034;2023-03-15T05:59:35;13.68;;;9.25;;
32876;SDS011;19226;51.600;8.034;2023-03-15T06:02:42;15.13;;;9.07;;
32876;SDS011;19226;51.600;8.034;2023-03-15T06:05:47;14.35;;;8.77;;
32876;SDS011;19226;51.600;8.034;2023-03-15T06:11:20;16.63;;;8.70;;
32876;SDS011;19226;51.600;8.034;2023-03-15T06:14:05;13.90;;;9.13;;
32876;SDS011;19226;51.600;8.034;2023-03-15T06:17:02;13.90;;;10.07;;
32876;SDS011;19226;51.600;8.034;2023-03-15T06:19:47;19.17;;;10.38;;
32876;SDS011;19226;51.600;8.034;2023-03-15T06:22:32;19.35;;;11.50;;
32876;SDS011;19226;51.600;8.034;2023-03-15T06:25:22;21.48;;;11.75;;
32876;SDS011;19226;51.600;8.034;2023-03-15T06:28:07;20.75;;;12.75;;
32876;SDS011;19226;51.600;8.034;2023-03-15T06:30:53;28.67;;;12.43;;
32876;SDS011;19226;51.600;8.034;2023-03-15T06:33:42;21.13;;;11.80;;
32876;SDS011;19226;51.600;8.034;2023-03-15T06:36:28;19.15;;;11.68;;
32876;SDS011;19226;51.600;8.034;2023-03-15T06:39:14;17.63;;;11.48;;
32876;SDS011;19226;51.600;8.034;2023-03-15T06:41:59;21.70;;;11.27;;
32876;SDS011;19226;51.600;8.034;2023-03-15T06:47:32;17.17;;;10.50;;
32876;SDS011;19226;51.600;8.034;2023-03-15T06:50:16;16.30;;;9.98;;
32876;SDS011;19226;51.600;8.034;2023-03-15T06:53:01;12.85;;;9.70;;
32876;SDS011;19226;51.600;8.034;2023-03-15T06:55:45;14.73;;;9.88;;
32876;SDS011;19226;51.600;8.034;2023-03-15T06:58:30;20.70;;;10.18;;
32876;SDS011;19226;51.600;8.034;2023-03-15T07:01:15;21.83;;;9.88;;
32876;SDS011;19226;51.600;8.034;2023-03-15T07:04:01;14.43;;;8.85;;
32876;SDS011;19226;51.600;8.034;2023-03-15T07:06:45;14.93;;;9.55;;
32876;SDS011;19226;51.600;8.034;2023-03-15T07:09:30;21.98;;;9.85;;
32876;SDS011;19226;51.600;8.034;2023-03-15T07:12:14;14.85;;;9.30;;
32876;SDS011;19226;51.600;8.034;2023-03-15T07:14:59;19.20;;;9.48;;
32876;SDS011;19226;51.600;8.034;2023-03-15T07:17:43;13.63;;;7.72;;
32876;SDS011;19226;51.600;8.034;2023-03-15T07:20:28;15.20;;;7.65;;
32876;SDS011;19226;51.600;8.034;2023-03-15T07:23:15;11.80;;;7.53;;
32876;SDS011;19226;51.600;8.034;2023-03-15T07:26:00;11.25;;;6.97;;
32876;SDS011;19226;51.600;8.034;2023-03-15T07:28:44;16.15;;;7.68;;
32876;SDS011;19226;51.600;8.034;2023-03-15T07:31:29;11.32;;;7.22;;
32876;SDS011;19226;51.600;8.034;2023-03-15T07:34:13;15.70;;;7.57;;
32876;SDS011;19226;51.600;8.034;2023-03-15T07:36:58;14.93;;;6.75;;
32876;SDS011;19226;51.600;8.034;2023-03-15T07:39:42;10.77;;;6.55;;
32876;SDS011;19226;51.600;8.034;2023-03-15T07:42:27;9.85;;;6.10;;
32876;SDS011;19226;51.600;8.034;2023-03-15T07:45:17;14.20;;;6.68;;
32876;SDS011;19226;51.600;8.034;2023-03-15T07:48:01;11.65;;;6.63;;
32876;SDS011;19226;51.600;8.034;2023-03-15T07:50:46;11.20;;;6.10;;
32876;SDS011;19226;51.600;8.034;2023-03-15T07:53:30;10.90;;;6.10;;
32876;SDS011;19226;51.600;8.034;2023-03-15T07:56:15;8.23;;;5.82;;
32876;SDS011;19226;51.600;8.034;2023-03-15T07:58:59;9.13;;;5.97;;
32876;SDS011;19226;51.600;8.034;2023-03-15T08:01:43;9.07;;;6.05;;
32876;SDS011;19226;51.600;8.034;2023-03-15T08:04:28;6.65;;;5.47;;
32876;SDS011;19226;51.600;8.034;2023-03-15T08:07:13;11.00;;;5.15;;
32876;SDS011;19226;51.600;8.034;2023-03-15T08:09:57;21.55;;;6.25;;
32876;SDS011;19226;51.600;8.034;2023-03-15T08:12:42;8.98;;;6.35;;
32876;SDS011;19226;51.600;8.034;2023-03-15T08:15:27;11.40;;;6.30;;
32876;SDS011;19226;51.600;8.034;2023-03-15T08:18:12;10.15;;;5.95;;
32876;SDS011;19226;51.600;8.034;2023-03-15T08:20:57;8.52;;;5.72;;
32876;SDS011;19226;51.600;8.034;2023-03-15T08:23:42;11.05;;;5.85;;
32876;SDS011;19226;51.600;8.034;2023-03-15T08:26:26;7.72;;;5.03;;
32876;SDS011;19226;51.600;8.034;2023-03-15T08:29:11;11.82;;;5.93;;
32876;SDS011;19226;51.600;8.034;2023-03-15T08:31:55;10.63;;;4.90;;
32876;SDS011;19226;51.600;8.034;2023-03-15T08:34:40;13.70;;;5.90;;
32876;SDS011;19226;51.600;8.034;2023-03-15T08:37:25;7.03;;;4.60;;
32876;SDS011;19226;51.600;8.034;2023-03-15T08:40:10;6.47;;;5.00;;
32876;SDS011;19226;51.600;8.034;2023-03-15T08:42:55;9.50;;;5.45;;
32876;SDS011;19226;51.600;8.034;2023-03-15T08:45:40;13.93;;;4.70;;
32876;SDS011;19226;51.600;8.034;2023-03-15T08:48:24;10.60;;;4.18;;
32876;SDS011;19226;51.600;8.034;2023-03-15T08:51:09;11.82;;;4.00;;
32876;SDS011;19226;51.600;8.034;2023-03-15T08:53:54;11.85;;;4.43;;
32876;SDS011;19226;51.600;8.034;2023-03-15T08:56:39;7.78;;;4.35;;
32876;SDS011;19226;51.600;8.034;2023-03-15T08:59:24;7.18;;;4.78;;
32876;SDS011;19226;51.600;8.034;2023-03-15T09:02:09;14.48;;;5.60;;
32876;SDS011;19226;51.600;8.034;2023-03-15T09:04:55;13.00;;;4.47;;
32876;SDS011;19226;51.600;8.034;2023-03-15T09:07:40;12.38;;;4.75;;
32876;SDS011;19226;51.600;8.034;2023-03-15T09:10:26;13.25;;;4.82;;
32876;SDS011;19226;51.600;8.034;2023-03-15T09:13:10;14.45;;;4.68;;
32876;SDS011;19226;51.600;8.034;2023-03-15T09:15:55;10.70;;;5.03;;
32876;SDS011;19226;51.600;8.034;2023-03-15T09:18:40;10.95;;;5.15;;
32876;SDS011;19226;51.600;8.034;2023-03-15T09:21:27;10.45;;;4.22;;
32876;SDS011;19226;51.600;8.034;2023-03-15T09:24:11;9.68;;;4.28;;
32876;SDS011;19226;51.600;8.034;2023-03-15T09:26:56;12.35;;;4.07;;
32876;SDS011;19226;51.600;8.034;2023-03-15T09:29:41;9.27;;;4.30;;
32876;SDS011;19226;51.600;8.034;2023-03-15T09:32:25;11.77;;;3.50;;
32876;SDS011;19226;51.600;8.034;2023-03-15T09:35:14;13.32;;;3.50;;
32876;SDS011;19226;51.600;8.034;2023-03-15T09:38:03;16.05;;;4.10;;
32876;SDS011;19226;51.600;8.034;2023-03-15T09:40:48;9.38;;;4.38;;
32876;SDS011;19226;51.600;8.034;2023-03-15T09:43:45;14.55;;;4.20;;
32876;SDS011;19226;51.600;8.034;2023-03-15T09:46:37;10.73;;;4.25;;
32876;SDS011;19226;51.600;8.034;2023-03-15T09:49:30;10.95;;;4.93;;
32876;SDS011;19226;51.600;8.034;2023-03-15T09:55:52;13.75;;;4.05;;
32876;SDS011;19226;51.600;8.034;2023-03-15T09:58:36;11.00;;;3.22;;
32876;SDS011;19226;51.600;8.034;2023-03-15T10:01:22;14.07;;;4.13;;
32876;SDS011;19226;51.600;8.034;2023-03-15T10:04:15;13.98;;;3.60;;
32876;SDS011;19226;51.600;8.034;2023-03-15T10:07:11;11.52;;;3.92;;
32876;SDS011;19226;51.600;8.034;2023-03-15T10:09:58;20.67;;;3.53;;
32876;SDS011;19226;51.600;8.034;2023-03-15T10:12:43;11.75;;;3.55;;
32876;SDS011;19226;51.600;8.034;2023-03-15T10:15:50;12.30;;;2.90;;
32876;SDS011;19226;51.600;8.034;2023-03-15T10:18:59;16.70;;;2.80;;
32876;SDS011;19226;51.600;8.034;2023-03-15T10:24:42;20.48;;;3.75;;
32876;SDS011;19226;51.600;8.034;2023-03-15T10:27:40;7.57;;;2.88;;
32876;SDS011;19226;51.600;8.034;2023-03-15T10:30:47;17.05;;;3.38;;
32876;SDS011;19226;51.600;8.034;2023-03-15T10:33:33;11.57;;;2.90;;
32876;SDS011;19226;51.600;8.034;2023-03-15T10:36:20;16.98;;;2.30;;
32876;SDS011;19226;51.600;8.034;2023-03-15T10:39:07;13.90;;;1.90;;
32876;SDS011;19226;51.600;8.034;2023-03-15T10:41:54;12.52;;;2.33;;
32876;SDS011;19226;51.600;8.034;2023-03-15T10:44:38;9.35;;;1.85;;
32876;SDS011;19226;51.600;8.034;2023-03-15T10:47:24;13.60;;;3.17;;
32876;SDS011;19226;51.600;8.034;2023-03-15T10:50:16;11.07;;;1.85;;
32876;SDS011;19226;51.600;8.034;2023-03-15T10:53:10;10.15;;;1.80;;
32876;SDS011;19226;51.600;8.034;2023-03-15T10:56:00;10.88;;;2.30;;
32876;SDS011;19226;51.600;8.034;2023-03-15T10:58:48;11.20;;;2.22;;
32876;SDS011;19226;51.600;8.034;2023-03-15T11:01:36;12.75;;;1.98;;
32876;SDS011;19226;51.600;8.034;2023-03-15T11:04:22;10.45;;;2.17;;
32876;SDS011;19226;51.600;8.034;2023-03-15T11:07:13;7.88;;;1.77;;
32876;SDS011;19226;51.600;8.034;2023-03-15T11:09:58;9.88;;;1.98;;
32876;SDS011;19226;51.600;8.034;2023-03-15T11:12:44;8.00;;;1.60;;
32876;SDS011;19226;51.600;8.034;2023-03-15T11:15:29;9.30;;;2.00;;
32876;SDS011;19226;51.600;8.034;2023-03-15T11:18:18;10.38;;;1.83;;
32876;SDS011;19226;51.600;8.034;2023-03-15T11:21:15;6.15;;;1.73;;
32876;SDS011;19226;51.600;8.034;2023-03-15T11:24:03;6.45;;;1.50;;
32876;SDS011;19226;51.600;8.034;2023-03-15T11:26:49;6.75;;;1.75;;
32876;SDS011;19226;51.600;8.034;2023-03-15T11:29:39;7.40;;;1.73;;
32876;SDS011;19226;51.600;8.034;2023-03-15T11:32:30;10.88;;;2.58;;
32876;SDS011;19226;51.600;8.034;2023-03-15T11:35:18;4.45;;;1.33;;
32876;SDS011;19226;51.600;8.034;2023-03-15T11:38:11;11.52;;;1.98;;
32876;SDS011;19226;51.600;8.034;2023-03-15T11:41:01;11.88;;;1.73;;
32876;SDS011;19226;51.600;8.034;2023-03-15T11:46:47;7.65;;;1.75;;
32876;SDS011;19226;51.600;8.034;2023-03-15T11:49:54;7.22;;;1.90;;
32876;SDS011;19226;51.600;8.034;2023-03-15T11:52:40;15.73;;;2.40;;
32876;SDS011;19226;51.600;8.034;2023-03-15T11:55:26;5.95;;;1.77;;
32876;SDS011;19226;51.600;8.034;2023-03-15T11:58:28;7.70;;;1.85;;
32876;SDS011;19226;51.600;8.034;2023-03-15T12:01:23;11.07;;;1.73;;
32876;SDS011;19226;51.600;8.034;2023-03-15T12:12:55;7.05;;;1.65;;
32876;SDS011;19226;51.600;8.034;2023-03-15T12:15:42;5.13;;;1.55;;
32876;SDS011;19226;51.600;8.034;2023-03-15T12:18:32;12.15;;;1.75;;
32876;SDS011;19226;51.600;8.034;2023-03-15T12:21:39;12.13;;;1.52;;
32876;SDS011;19226;51.600;8.034;2023-03-15T12:24:29;5.80;;;1.13;;
32876;SDS011;19226;51.600;8.034;2023-03-15T12:27:19;4.60;;;0.95;;
32876;SDS011;19226;51.600;8.034;2023-03-15T12:30:04;8.35;;;1.58;;
32876;SDS011;19226;51.600;8.034;2023-03-15T12:32:59;5.47;;;1.25;;
32876;SDS011;19226;51.600;8.034;2023-03-15T12:35:46;6.47;;;1.50;;
32876;SDS011;19226;51.600;8.034;2023-03-15T12:38:37;11.88;;;1.70;;
32876;SDS011;19226;51.600;8.034;2023-03-15T12:41:45;9.57;;;1.70;;
32876;SDS011;19226;51.600;8.034;2023-03-15T12:47:15;8.73;;;1.38;;
32876;SDS011;19226;51.600;8.034;2023-03-15T12:50:10;3.53;;;1.20;;
32876;SDS011;19226;51.600;8.034;2023-03-15T12:56:27;3.53;;;1.15;;
32876;SDS011;19226;51.600;8.034;2023-03-15T13:02:34;4.75;;;0.88;;
32876;SDS011;19226;51.600;8.034;2023-03-15T13:11:16;7.68;;;1.45;;
32876;SDS011;19226;51.600;8.034;2023-03-15T13:23:33;1.90;;;1.02;;
32876;SDS011;19226;51.600;8.034;2023-03-15T13:29:17;4.28;;;1.33;;
32876;SDS011;19226;51.600;8.034;2023-03-15T13:32:11;2.47;;;0.80;;
32876;SDS011;19226;51.600;8.034;2023-03-15T13:35:00;7.63;;;0.98;;
32876;SDS011;19226;51.600;8.034;2023-03-15T13:37:45;2.63;;;0.95;;
32876;SDS011;19226;51.600;8.034;2023-03-15T13:40:29;5.25;;;1.00;;
32876;SDS011;19226;51.600;8.034;2023-03-15T13:43:14;6.43;;;1.00;;
32876;SDS011;19226;51.600;8.034;2023-03-15T13:45:59;3.63;;;1.10;;
32876;SDS011;19226;51.600;8.034;2023-03-15T13:48:45;5.32;;;0.88;;
32876;SDS011;19226;51.600;8.034;2023-03-15T13:51:30;4.55;;;0.90;;
32876;SDS011;19226;51.600;8.034;2023-03-15T13:57:05;2.67;;;0.68;;
32876;SDS011;19226;51.600;8.034;2023-03-15T13:59:57;3.75;;;1.30;;
32876;SDS011;19226;51.600;8.034;2023-03-15T14:05:32;2.92;;;0.70;;
32876;SDS011;19226;51.600;8.034;2023-03-15T14:11:33;2.60;;;0.98;;
32876;SDS011;19226;51.600;8.034;2023-03-15T14:20:15;6.47;;;0.98;;
32876;SDS011;19226;51.600;8.034;2023-03-15T14:23:01;2.28;;;0.70;;
32876;SDS011;19226;51.600;8.034;2023-03-15T14:25:50;2.75;;;0.80;;
32876;SDS011;19226;51.600;8.034;2023-03-15T14:28:48;5.78;;;1.38;;
32876;SDS011;19226;51.600;8.034;2023-03-15T14:31:38;2.40;;;1.00;;
32876;SDS011;19226;51.600;8.034;2023-03-15T14:37:29;10.18;;;1.05;;
32876;SDS011;19226;51.600;8.034;2023-03-15T14:43:13;3.67;;;0.85;;
32876;SDS011;19226;51.600;8.034;2023-03-15T14:45:57;2.30;;;0.82;;
32876;SDS011;19226;51.600;8.034;2023-03-15T14:48:42;3.08;;;1.08;;
32876;SDS011;19226;51.600;8.034;2023-03-15T14:51:27;1.98;;;0.70;;
32876;SDS011;19226;51.600;8.034;2023-03-15T14:54:12;3.47;;;0.65;;
32876;SDS011;19226;51.600;8.034;2023-03-15T14:56:56;2.17;;;0.90;;
32876;SDS011;19226;51.600;8.034;2023-03-15T14:59:41;2.22;;;1.00;;
32876;SDS011;19226;51.600;8.034;2023-03-15T15:02:25;4.05;;;0.70;;
32876;SDS011;19226;51.600;8.034;2023-03-15T15:05:21;4.47;;;0.98;;
32876;SDS011;19226;51.600;8.034;2023-03-15T15:08:10;4.78;;;0.70;;
32876;SDS011;19226;51.600;8.034;2023-03-15T15:10:56;3.10;;;1.10;;
32876;SDS011;19226;51.600;8.034;2023-03-15T15:13:41;6.05;;;0.98;;
32876;SDS011;19226;51.600;8.034;2023-03-15T15:16:25;2.95;;;0.98;;
32876;SDS011;19226;51.600;8.034;2023-03-15T15:19:10;3.40;;;0.73;;
32876;SDS011;19226;51.600;8.034;2023-03-15T15:21:55;5.00;;;0.93;;
32876;SDS011;19226;51.600;8.034;2023-03-15T15:24:40;4.20;;;0.70;;
32876;SDS011;19226;51.600;8.034;2023-03-15T15:27:24;11.50;;;1.17;;
32876;SDS011;19226;51.600;8.034;2023-03-15T15:30:13;2.42;;;1.00;;
32876;SDS011;19226;51.600;8.034;2023-03-15T15:33:02;2.42;;;1.10;;
32876;SDS011;19226;51.600;8.034;2023-03-15T15:35:48;4.80;;;1.20;;
32876;SDS011;19226;51.600;8.034;2023-03-15T15:38:37;4.25;;;0.70;;
32876;SDS011;19226;51.600;8.034;2023-03-15T15:41:24;3.95;;;0.85;;
32876;SDS011;19226;51.600;8.034;2023-03-15T15:44:14;3.63;;;0.98;;
32876;SDS011;19226;51.600;8.034;2023-03-15T15:47:01;8.48;;;3.10;;
32876;SDS011;19226;51.600;8.034;2023-03-15T15:49:46;9.20;;;2.67;;
32876;SDS011;19226;51.600;8.034;2023-03-15T15:52:31;14.93;;;4.30;;
32876;SDS011;19226;51.600;8.034;2023-03-15T15:55:20;3.47;;;2.22;;
32876;SDS011;19226;51.600;8.034;2023-03-15T15:58:08;1.77;;;0.88;;
32876;SDS011;19226;51.600;8.034;2023-03-15T16:00:55;2.60;;;1.13;;
32876;SDS011;19226;51.600;8.034;2023-03-15T16:03:40;2.00;;;0.85;;
32876;SDS011;19226;51.600;8.034;2023-03-15T16:06:25;3.80;;;0.98;;
32876;SDS011;19226;51.600;8.034;2023-03-15T16:09:10;5.63;;;1.05;;
32876;SDS011;19226;51.600;8.034;2023-03-15T16:11:55;4.40;;;1.00;;
32876;SDS011;19226;51.600;8.034;2023-03-15T16:14:40;4.32;;;1.50;;
32876;SDS011;19226;51.600;8.034;2023-03-15T16:17:25;3.25;;;0.68;;
32876;SDS011;19226;51.600;8.034;2023-03-15T16:20:10;4.78;;;0.95;;
32876;SDS011;19226;51.600;8.034;2023-03-15T16:22:57;4.30;;;0.70;;
32876;SDS011;19226;51.600;8.034;2023-03-15T16:25:43;8.23;;;1.00;;
32876;SDS011;19226;51.600;8.034;2023-03-15T16:28:32;3.30;;;1.27;;
32876;SDS011;19226;51.600;8.034;2023-03-15T16:31:18;5.70;;;0.98;;
32876;SDS011;19226;51.600;8.034;2023-03-15T16:34:11;5.78;;;0.90;;
32876;SDS011;19226;51.600;8.034;2023-03-15T16:36:56;4.95;;;0.95;;
32876;SDS011;19226;51.600;8.034;2023-03-15T16:39:43;2.92;;;0.85;;
32876;SDS011;19226;51.600;8.034;2023-03-15T16:42:29;2.33;;;0.80;;
32876;SDS011;19226;51.600;8.034;2023-03-15T16:45:14;3.97;;;1.20;;
32876;SDS011;19226;51.600;8.034;2023-03-15T16:47:59;4.70;;;0.95;;
32876;SDS011;19226;51.600;8.034;2023-03-15T16:50:43;3.65;;;0.82;;
32876;SDS011;19226;51.600;8.034;2023-03-15T16:53:28;4.68;;;1.30;;
32876;SDS011;19226;51.600;8.034;2023-03-15T16:56:14;3.67;;;0.70;;
32876;SDS011;19226;51.600;8.034;2023-03-15T16:58:59;4.05;;;0.77;;
32876;SDS011;19226;51.600;8.034;2023-03-15T17:01:44;1.85;;;1.00;;
32876;SDS011;19226;51.600;8.034;2023-03-15T17:04:29;1.55;;;0.90;;
32876;SDS011;19226;51.600;8.034;2023-03-15T17:07:13;2.95;;;1.10;;
32876;SDS011;19226;51.600;8.034;2023-03-15T17:10:01;7.40;;;1.05;;
32876;SDS011;19226;51.600;8.034;2023-03-15T17:13:07;1.63;;;0.73;;
32876;SDS011;19226;51.600;8.034;2023-03-15T17:15:56;5.45;;;3.10;;
32876;SDS011;19226;51.600;8.034;2023-03-15T17:18:41;2.75;;;0.95;;
32876;SDS011;19226;51.600;8.034;2023-03-15T17:21:26;9.88;;;1.85;;
32876;SDS011;19226;51.600;8.034;2023-03-15T17:24:11;4.05;;;1.70;;
32876;SDS011;19226;51.600;8.034;2023-03-15T17:26:57;3.38;;;1.02;;
32876;SDS011;19226;51.600;8.034;2023-03-15T17:29:41;3.15;;;1.70;;
32876;SDS011;19226;51.600;8.034;2023-03-15T17:32:26;22.25;;;9.55;;
32876;SDS011;19226;51.600;8.034;2023-03-15T17:35:15;29.58;;;13.55;;
32876;SDS011;19226;51.600;8.034;2023-03-15T17:38:04;30.85;;;16.42;;
32876;SDS011;19226;51.600;8.034;2023-03-15T17:40:49;9.13;;;3.25;;
32876;SDS011;19226;51.600;8.034;2023-03-15T17:43:38;4.70;;;2.22;;
32876;SDS011;19226;51.600;8.034;2023-03-15T17:46:27;7.13;;;2.20;;
32876;SDS011;19226;51.600;8.034;2023-03-15T17:49:17;6.35;;;2.33;;
32876;SDS011;19226;51.600;8.034;2023-03-15T17:52:23;5.35;;;2.88;;
32876;SDS011;19226;51.600;8.034;2023-03-15T17:55:14;12.77;;;7.20;;
32876;SDS011;19226;51.600;8.034;2023-03-15T17:58:01;9.68;;;4.28;;
32876;SDS011;19226;51.600;8.034;2023-03-15T18:00:52;7.22;;;3.20;;
32876;SDS011;19226;51.600;8.034;2023-03-15T18:03:40;12.63;;;3.97;;
32876;SDS011;19226;51.600;8.034;2023-03-15T18:06:26;8.68;;;3.47;;
32876;SDS011;19226;51.600;8.034;2023-03-15T18:09:11;5.07;;;2.53;;
32876;SDS011;19226;51.600;8.034;2023-03-15T18:11:55;5.55;;;2.15;;
32876;SDS011;19226;51.600;8.034;2023-03-15T18:14:40;7.68;;;2.40;;
32876;SDS011;19226;51.600;8.034;2023-03-15T18:17:25;6.40;;;2.80;;
32876;SDS011;19226;51.600;8.034;2023-03-15T18:20:10;11.73;;;3.33;;
32876;SDS011;19226;51.600;8.034;2023-03-15T18:22:57;5.93;;;3.05;;